Time;durP1;ratioP1;P1;durP2;ratioP2;P2;SDS_P1;SDS_P2;PMS_P1;PMS_P2;Temp;Humidity;BMP_temperature;BMP_pressure;BME280_temperature;BME280_humidity;BME280_pressure;Samples;Min_cycle;Max_cycle;Signal;HPM_P1;HPM_P2
2022/08/12 00:44:26;;;;;;;2.08;1.92;;;24.00;43.40;;;;;;5033736;28;20192;-74
2022/08/12 00:46:57;;;;;;;2.10;1.90;;;23.90;43.80;;;;;;5033977;28;20206;-73
2022/08/12 00:49:25;;;;;;;2.05;1.90;;;23.90;43.00;;;;;;5034532;28;20220;-74
2022/08/12 00:52:08;;;;;;;2.08;1.98;;;24.00;43.20;;;;;;5035549;28;20196;-75
2022/08/12 00:54:38;;;;;;;2.20;2.05;;;23.90;43.10;;;;;;5033744;28;20211;-74
2022/08/12 00:57:08;;;;;;;2.22;1.80;;;23.90;43.10;;;;;;5033123;28;20198;-74
2022/08/12 00:59:35;;;;;;;2.00;1.90;;;23.90;43.20;;;;;;5034443;28;20192;-74
2022/08/12 01:02:04;;;;;;;2.03;1.85;;;23.90;43.30;;;;;;5017089;28;20319;-74
2022/08/12 01:12:47;;;;;;;1.92;1.80;;;23.80;43.10;;;;;;5032888;28;20176;-73
2022/08/12 01:15:14;;;;;;;2.20;2.00;;;23.80;43.10;;;;;;5032743;28;20732;-74
2022/08/12 01:17:43;;;;;;;2.10;2.00;;;23.80;43.10;;;;;;5034238;28;20274;-74
2022/08/12 01:20:22;;;;;;;2.20;2.00;;;23.80;43.50;;;;;;5033368;28;20234;-74
2022/08/12 01:23:23;;;;;;;2.10;2.00;;;23.80;43.20;;;;;;5033366;28;20212;-75
2022/08/12 01:25:51;;;;;;;2.03;1.92;;;23.80;43.10;;;;;;5026617;28;20203;-74
2022/08/12 01:28:18;;;;;;;2.38;2.15;;;23.80;43.30;;;;;;5032753;28;20215;-74
2022/08/12 01:30:46;;;;;;;2.30;2.10;;;23.80;43.40;;;;;;5033048;28;20207;-73
2022/08/12 01:33:16;;;;;;;3.90;2.00;;;23.70;43.10;;;;;;5015888;28;20192;-73
2022/08/12 01:35:48;;;;;;;2.45;2.25;;;23.70;43.20;;;;;;5033416;28;20204;-74
2022/08/12 01:38:19;;;;;;;2.20;2.00;;;23.70;43.30;;;;;;5032560;28;20271;-74
2022/08/12 01:40:47;;;;;;;2.00;1.80;;;23.70;43.40;;;;;;5032587;28;20193;-74
2022/08/12 01:43:18;;;;;;;2.10;2.00;;;23.70;43.30;;;;;;5032672;28;20223;-74
2022/08/12 01:45:47;;;;;;;2.17;2.05;;;23.70;43.20;;;;;;5032583;28;20196;-74
2022/08/12 01:48:19;;;;;;;2.22;2.03;;;23.70;43.30;;;;;;5032234;28;20220;-73
2022/08/12 01:50:50;;;;;;;2.13;1.92;;;23.70;43.40;;;;;;5032629;28;20192;-74
2022/08/12 01:53:19;;;;;;;1.90;1.80;;;23.70;43.50;;;;;;5032891;28;20193;-74
2022/08/12 01:55:47;;;;;;;1.90;1.80;;;23.70;43.50;;;;;;5032624;28;20215;-74
2022/08/12 01:58:27;;;;;;;1.90;1.80;;;23.70;43.70;;;;;;5032869;28;20220;-75
2022/08/12 02:00:57;;;;;;;2.00;1.90;;;23.70;43.60;;;;;;5033474;28;20200;-75
2022/08/12 02:12:06;;;;;;;2.20;2.10;;;23.60;43.70;;;;;;5032447;28;20642;-75
2022/08/12 02:14:48;;;;;;;2.13;2.00;;;23.60;43.80;;;;;;5032900;28;20196;-74
2022/08/12 02:17:30;;;;;;;2.35;2.15;;;23.60;43.80;;;;;;5033796;28;20196;-75
2022/08/12 02:20:04;;;;;;;2.63;2.13;;;23.60;43.80;;;;;;5032270;28;20199;-73
2022/08/12 02:22:37;;;;;;;2.30;2.10;;;23.50;43.80;;;;;;5032951;28;20211;-73
2022/08/12 02:25:07;;;;;;;2.78;2.20;;;23.50;43.80;;;;;;5032001;28;20621;-75
2022/08/12 02:27:38;;;;;;;2.40;2.20;;;23.50;44.00;;;;;;5031954;28;20216;-73
2022/08/12 02:30:08;;;;;;;2.00;1.90;;;23.50;44.00;;;;;;5032040;28;20227;-74
2022/08/12 02:32:37;;;;;;;2.45;2.13;;;23.50;43.90;;;;;;5032112;28;20180;-73
2022/08/12 02:35:05;;;;;;;2.33;2.13;;;23.50;44.00;;;;;;5031773;28;20254;-74
2022/08/12 02:37:32;;;;;;;2.30;2.10;;;23.50;44.00;;;;;;5032090;28;20223;-75
2022/08/12 02:39:59;;;;;;;2.45;2.28;;;23.50;44.00;;;;;;5031959;28;20200;-73
2022/08/12 02:42:26;;;;;;;2.38;2.17;;;23.50;44.00;;;;;;5031935;28;20312;-74
2022/08/12 02:44:53;;;;;;;2.63;2.28;;;23.50;44.20;;;;;;5032506;28;20572;-74
2022/08/12 02:47:22;;;;;;;2.50;2.30;;;23.40;44.00;;;;;;5035266;28;20196;-74
2022/08/12 02:49:54;;;;;;;2.03;1.92;;;23.40;44.00;;;;;;5035608;28;20200;-74
2022/08/12 02:52:22;;;;;;;2.40;2.20;;;23.40;44.00;;;;;;5036965;28;20234;-75
2022/08/12 02:54:51;;;;;;;2.40;2.03;;;23.40;44.00;;;;;;5035267;28;20204;-75
2022/08/12 02:57:19;;;;;;;2.40;2.20;;;23.40;44.20;;;;;;5035123;28;20267;-73
2022/08/12 02:59:47;;;;;;;2.67;2.10;;;23.40;44.20;;;;;;5035160;28;20224;-75
2022/08/12 03:02:14;;;;;;;2.83;2.10;;;23.40;44.00;;;;;;5036240;28;20281;-74
2022/08/12 03:04:46;;;;;;;1.98;1.88;;;23.40;44.20;;;;;;5035214;28;20655;-75
2022/08/12 03:07:16;;;;;;;2.72;2.05;;;23.30;44.00;;;;;;5036433;28;20173;-74
2022/08/12 03:09:45;;;;;;;2.53;2.20;;;23.40;44.20;;;;;;5036219;28;20222;-73
2022/08/12 03:12:12;;;;;;;2.60;2.40;;;23.40;44.60;;;;;;5034843;28;20200;-75
2022/08/12 03:14:42;;;;;;;2.20;2.10;;;23.30;44.50;;;;;;5035133;28;20270;-73
2022/08/12 03:17:13;;;;;;;2.33;2.13;;;23.30;44.40;;;;;;5018543;28;20730;-75
2022/08/12 03:19:42;;;;;;;2.30;2.10;;;23.30;44.40;;;;;;5035004;28;20188;-75
2022/08/12 03:22:13;;;;;;;2.42;2.22;;;23.30;44.40;;;;;;5035596;28;20298;-74
2022/08/12 03:24:41;;;;;;;2.83;2.17;;;23.30;44.30;;;;;;5035078;28;20722;-73
2022/08/12 03:27:09;;;;;;;3.35;2.10;;;23.30;44.30;;;;;;5034706;28;20283;-73
2022/08/12 03:29:36;;;;;;;3.63;2.30;;;23.30;44.40;;;;;;5035227;28;20255;-74
2022/08/12 03:32:04;;;;;;;2.58;2.38;;;23.40;44.60;;;;;;5035172;28;20196;-74
2022/08/12 03:34:32;;;;;;;2.63;2.20;;;23.40;44.60;;;;;;5034630;28;20216;-73
2022/08/12 03:36:59;;;;;;;2.15;2.05;;;23.40;44.50;;;;;;5018120;28;20227;-74
2022/08/12 03:39:39;;;;;;;2.40;2.20;;;23.40;44.50;;;;;;5034361;28;20220;-73
2022/08/12 03:42:24;;;;;;;2.45;2.25;;;23.40;44.40;;;;;;5034686;28;20188;-74
2022/08/12 04:01:30;;;;;;;2.92;2.30;;;23.30;44.40;;;;;;5035415;28;20179;-74
2022/08/12 04:03:56;;;;;;;2.25;2.10;;;23.40;44.40;;;;;;5034243;28;20270;-73
2022/08/12 04:06:25;;;;;;;2.33;2.10;;;23.30;44.40;;;;;;5034081;28;20206;-76
2022/08/12 04:08:56;;;;;;;2.40;2.20;;;23.30;44.30;;;;;;5017565;28;20303;-74
2022/08/12 04:14:11;;;;;;;2.67;2.47;;;23.30;44.20;;;;;;5034249;28;20210;-74
2022/08/12 04:16:38;;;;;;;2.20;2.00;;;23.30;44.30;;;;;;5033930;28;20200;-73
2022/08/12 04:19:06;;;;;;;2.30;2.10;;;23.30;44.50;;;;;;5033772;28;20321;-75
2022/08/12 04:21:35;;;;;;;2.40;2.20;;;23.30;44.60;;;;;;5034066;28;20227;-73
2022/08/12 04:24:02;;;;;;;2.45;2.25;;;23.30;44.60;;;;;;5033928;28;20637;-75
2022/08/12 04:26:31;;;;;;;2.50;2.30;;;23.30;44.60;;;;;;5035758;28;20294;-73
2022/08/12 04:28:58;;;;;;;2.42;2.25;;;23.30;44.60;;;;;;5017870;28;20226;-75
2022/08/12 04:31:32;;;;;;;2.40;2.20;;;23.20;44.60;;;;;;5034287;28;20207;-74
2022/08/12 04:33:59;;;;;;;2.42;2.22;;;23.20;44.80;;;;;;5034167;28;20282;-75
2022/08/12 04:36:26;;;;;;;2.53;2.33;;;23.20;44.70;;;;;;5034082;28;20253;-75
2022/08/12 04:38:54;;;;;;;2.95;2.45;;;23.20;44.60;;;;;;5033425;28;20322;-74
2022/08/12 04:41:21;;;;;;;2.40;2.20;;;23.20;45.00;;;;;;5033476;28;20270;-73
2022/08/12 04:43:49;;;;;;;2.50;2.30;;;23.20;44.90;;;;;;5034179;28;20215;-73
2022/08/12 04:46:16;;;;;;;2.65;2.45;;;23.20;44.70;;;;;;5033745;28;20196;-73
2022/08/12 04:48:43;;;;;;;2.45;2.30;;;23.20;44.80;;;;;;5033640;28;20273;-73
2022/08/12 04:51:11;;;;;;;2.10;2.00;;;23.20;44.80;;;;;;5053265;28;20188;-73
2022/08/12 04:53:38;;;;;;;2.40;2.25;;;23.20;44.80;;;;;;5057017;28;20207;-73
2022/08/12 04:56:05;;;;;;;3.00;2.40;;;23.20;44.80;;;;;;5018647;28;20200;-73
2022/08/12 04:58:33;;;;;;;2.50;2.30;;;23.30;44.90;;;;;;5033109;28;20768;-74
2022/08/12 05:01:01;;;;;;;3.00;2.80;;;23.30;44.80;;;;;;5032974;28;20303;-74
2022/08/12 05:03:28;;;;;;;2.60;2.40;;;23.30;44.80;;;;;;5032790;28;20306;-75
2022/08/12 05:05:56;;;;;;;4.30;2.70;;;23.30;44.80;;;;;;5016886;28;20258;-75
2022/08/12 05:08:24;;;;;;;3.15;2.95;;;23.30;44.30;;;;;;5033093;28;20318;-74
2022/08/12 05:10:51;;;;;;;3.20;2.92;;;23.30;44.50;;;;;;5032773;28;20610;-75
2022/08/12 05:13:19;;;;;;;5.05;3.10;;;23.00;45.00;;;;;;5016382;28;20238;-74
2022/08/12 05:15:46;;;;;;;5.28;3.50;;;22.70;45.60;;;;;;5032747;28;20258;-74
2022/08/12 05:18:15;;;;;;;3.78;3.20;;;22.80;45.40;;;;;;5032635;28;20244;-74
2022/08/12 05:20:42;;;;;;;4.15;3.38;;;22.70;45.70;;;;;;5033675;28;20224;-74
2022/08/12 05:23:10;;;;;;;4.97;3.17;;;22.70;45.80;;;;;;5032654;28;20247;-74
2022/08/12 05:25:37;;;;;;;3.50;3.20;;;22.60;46.00;;;;;;5032527;28;20195;-75
2022/08/12 05:28:05;;;;;;;3.72;3.13;;;22.60;46.20;;;;;;5032668;28;20220;-74
2022/08/12 05:30:33;;;;;;;3.80;3.40;;;22.60;46.30;;;;;;5033905;28;20200;-75
2022/08/12 05:33:04;;;;;;;4.30;3.30;;;22.70;46.10;;;;;;5032646;28;20200;-75
2022/08/12 05:35:38;;;;;;;4.40;3.60;;;22.80;46.20;;;;;;5032453;28;20211;-74
2022/08/12 05:40:50;;;;;;;4.70;3.53;;;22.80;46.00;;;;;;5033620;28;20164;-74
2022/08/12 05:43:17;;;;;;;6.63;4.55;;;22.90;46.00;;;;;;5033388;28;20208;-75
2022/08/12 05:45:45;;;;;;;7.18;4.55;;;22.90;46.10;;;;;;5032302;28;20220;-75
2022/08/12 05:48:12;;;;;;;5.78;4.50;;;23.10;45.60;;;;;;5032384;28;20219;-74
2022/08/12 05:50:40;;;;;;;5.05;4.13;;;23.10;45.70;;;;;;5032369;28;20236;-74
2022/08/12 05:53:07;;;;;;;5.82;4.10;;;23.20;45.90;;;;;;5033427;28;20658;-73
2022/08/12 05:55:35;;;;;;;5.57;3.80;;;23.40;45.30;;;;;;5033040;28;20198;-74
2022/08/12 05:58:03;;;;;;;5.18;3.70;;;23.80;44.60;;;;;;5032629;28;20247;-75
2022/08/12 06:00:30;;;;;;;7.88;4.00;;;24.10;44.00;;;;;;5032323;28;20234;-74
2022/08/12 06:02:59;;;;;;;4.82;3.55;;;24.40;43.50;;;;;;5032074;28;20307;-74
2022/08/12 06:05:26;;;;;;;5.20;3.70;;;24.60;43.10;;;;;;5032154;28;20651;-74
2022/08/12 06:07:55;;;;;;;4.10;3.67;;;24.70;43.00;;;;;;5032027;28;20216;-73
2022/08/12 06:10:22;;;;;;;4.95;3.60;;;24.90;42.70;;;;;;5032336;28;20281;-74
2022/08/12 06:12:50;;;;;;;4.22;3.83;;;25.20;42.10;;;;;;5032120;28;20204;-74
2022/08/12 06:15:16;;;;;;;4.30;3.90;;;25.40;41.60;;;;;;5032307;28;20286;-74
2022/08/12 06:17:44;;;;;;;4.55;3.72;;;25.60;41.00;;;;;;5032005;28;20762;-74
2022/08/12 06:20:12;;;;;;;4.93;4.00;;;25.90;40.80;;;;;;5033306;28;20193;-74
2022/08/12 06:22:39;;;;;;;4.43;3.65;;;26.00;40.50;;;;;;5036337;28;20196;-74
2022/08/12 06:25:08;;;;;;;5.28;3.40;;;26.20;40.30;;;;;;5036210;28;20200;-75
2022/08/12 06:27:41;;;;;;;5.35;3.60;;;26.30;40.00;;;;;;5037158;28;20222;-75
2022/08/12 06:30:10;;;;;;;4.88;3.63;;;26.50;39.80;;;;;;5036633;28;20254;-75
2022/08/12 06:32:38;;;;;;;5.35;3.67;;;26.60;39.50;;;;;;5036147;28;20253;-74
2022/08/12 06:35:05;;;;;;;5.50;3.58;;;26.80;39.90;;;;;;5037154;28;20258;-74
2022/08/12 06:37:38;;;;;;;5.07;3.42;;;26.90;39.00;;;;;;5036014;28;20212;-76
2022/08/12 06:40:09;;;;;;;5.13;3.58;;;27.00;38.70;;;;;;5035789;28;20242;-75
2022/08/12 06:42:46;;;;;;;3.75;3.45;;;27.10;38.60;;;;;;5035678;28;20227;-74
2022/08/12 06:45:13;;;;;;;3.95;3.15;;;27.20;38.40;;;;;;5035693;28;20283;-74
2022/08/12 06:47:40;;;;;;;5.18;3.40;;;27.30;38.20;;;;;;5035493;28;20285;-74
2022/08/12 06:50:08;;;;;;;4.22;3.30;;;27.40;38.10;;;;;;5035530;28;20547;-74
2022/08/12 06:52:35;;;;;;;5.38;3.20;;;27.50;37.90;;;;;;5035448;28;20192;-75
2022/08/12 06:55:02;;;;;;;3.42;3.10;;;27.60;37.70;;;;;;5035571;28;20196;-74
2022/08/12 06:57:30;;;;;;;4.25;3.35;;;27.70;37.60;;;;;;5035144;28;20239;-74
2022/08/12 06:59:57;;;;;;;4.40;3.47;;;27.80;37.50;;;;;;5035449;28;20188;-74
2022/08/12 07:02:24;;;;;;;3.85;3.13;;;27.80;37.30;;;;;;5035176;28;20296;-76
2022/08/12 07:04:52;;;;;;;4.47;3.42;;;27.90;37.20;;;;;;5035074;28;20242;-74
2022/08/12 07:07:19;;;;;;;3.60;3.15;;;28.00;37.20;;;;;;5035526;28;20231;-74
2022/08/12 07:09:48;;;;;;;5.38;3.33;;;28.10;37.10;;;;;;5035433;28;20203;-75
2022/08/12 07:12:18;;;;;;;3.80;2.95;;;28.10;36.90;;;;;;5035115;28;20565;-75
2022/08/12 07:14:50;;;;;;;3.80;3.15;;;28.20;36.80;;;;;;5036199;28;20289;-74
2022/08/12 07:17:17;;;;;;;4.95;3.15;;;28.20;36.60;;;;;;5034847;28;20199;-75
2022/08/12 07:19:45;;;;;;;3.22;2.90;;;28.30;36.50;;;;;;5036200;28;20191;-74
2022/08/12 07:22:13;;;;;;;4.75;3.10;;;28.40;36.40;;;;;;5035046;28;20203;-74
2022/08/12 07:24:41;;;;;;;4.00;3.20;;;28.40;36.20;;;;;;5034629;28;20223;-74
2022/08/12 07:27:08;;;;;;;4.60;3.10;;;28.50;36.10;;;;;;5034925;28;20199;-75
2022/08/12 07:29:35;;;;;;;3.08;2.78;;;28.60;36.00;;;;;;5035577;28;20203;-76
2022/08/12 07:32:04;;;;;;;3.35;3.05;;;28.60;35.80;;;;;;5033475;28;20203;-74
2022/08/12 07:34:31;;;;;;;4.25;3.22;;;28.70;35.80;;;;;;5034802;28;20241;-74
2022/08/12 07:37:00;;;;;;;3.22;2.90;;;28.80;35.70;;;;;;5034694;28;20196;-74
2022/08/12 07:39:28;;;;;;;3.25;2.95;;;28.80;35.50;;;;;;5034501;28;20223;-74
2022/08/12 07:41:55;;;;;;;3.60;2.90;;;28.90;35.50;;;;;;5034510;28;20191;-76
2022/08/12 07:44:22;;;;;;;3.47;3.17;;;28.90;35.20;;;;;;5034194;28;20227;-74
2022/08/12 07:46:49;;;;;;;3.25;2.95;;;29.00;35.20;;;;;;5034384;28;20249;-74
2022/08/12 07:49:17;;;;;;;3.08;2.70;;;29.00;35.00;;;;;;5034255;28;20228;-74
2022/08/12 07:51:44;;;;;;;2.70;2.50;;;29.10;35.00;;;;;;5034539;28;20203;-76
2022/08/12 07:54:12;;;;;;;3.20;2.75;;;29.10;34.80;;;;;;5017773;28;20203;-74
2022/08/12 07:56:40;;;;;;;4.22;2.63;;;29.20;34.80;;;;;;5033836;28;20191;-74
2022/08/12 07:59:08;;;;;;;3.33;2.70;;;29.20;34.70;;;;;;5034836;28;20285;-75
2022/08/12 08:01:36;;;;;;;3.28;2.97;;;29.20;34.60;;;;;;5034093;28;20576;-74
2022/08/12 08:06:49;;;;;;;3.42;2.92;;;29.40;34.40;;;;;;5034792;28;20192;-74
2022/08/12 08:09:20;;;;;;;3.20;2.90;;;29.40;34.30;;;;;;5033812;28;20269;-74
2022/08/12 08:14:28;;;;;;;2.80;2.60;;;29.50;34.70;;;;;;4991535;28;20199;-75
2022/08/12 08:16:55;;;;;;;4.00;2.85;;;29.50;34.00;;;;;;5033827;28;20278;-74
2022/08/12 08:19:24;;;;;;;3.22;2.80;;;29.50;34.00;;;;;;5033709;28;20302;-75
2022/08/12 08:21:53;;;;;;;2.85;2.65;;;29.50;34.00;;;;;;5033686;28;20199;-74
2022/08/12 08:24:23;;;;;;;4.03;2.90;;;29.50;34.00;;;;;;5033558;28;20215;-74
2022/08/12 08:26:52;;;;;;;3.00;2.80;;;29.50;34.00;;;;;;5017495;28;20211;-74
2022/08/12 08:29:20;;;;;;;3.03;2.83;;;29.50;33.90;;;;;;5033472;28;20223;-75
2022/08/12 08:31:52;;;;;;;2.65;2.40;;;29.50;34.00;;;;;;5035002;28;20287;-75
2022/08/12 08:34:19;;;;;;;2.85;2.60;;;29.50;33.90;;;;;;5033522;28;20203;-75
2022/08/12 08:36:46;;;;;;;3.10;2.80;;;29.60;34.00;;;;;;5034636;28;20245;-75
2022/08/12 08:39:16;;;;;;;3.00;2.60;;;29.60;34.00;;;;;;5033593;28;20219;-75
2022/08/12 08:44:29;;;;;;;3.05;2.60;;;29.70;33.90;;;;;;5033760;28;20215;-74
2022/08/12 08:46:56;;;;;;;3.20;2.90;;;29.70;33.80;;;;;;5033160;28;20204;-76
2022/08/12 08:49:24;;;;;;;2.60;2.40;;;29.80;33.90;;;;;;5032937;28;20277;-76
2022/08/12 08:51:51;;;;;;;2.72;2.50;;;29.80;33.70;;;;;;5032937;28;20199;-75
2022/08/12 08:54:19;;;;;;;3.08;2.78;;;29.70;33.70;;;;;;5033527;28;20210;-75
2022/08/12 08:56:48;;;;;;;3.05;2.40;;;29.80;33.60;;;;;;5032947;28;20282;-74
2022/08/12 08:59:15;;;;;;;2.97;2.67;;;29.80;33.60;;;;;;5033460;28;20215;-74
2022/08/12 09:01:42;;;;;;;2.83;2.60;;;29.80;33.60;;;;;;5033253;28;20273;-76
2022/08/12 09:04:10;;;;;;;2.90;2.60;;;29.80;33.50;;;;;;5032934;28;20310;-76
2022/08/12 09:06:40;;;;;;;2.70;2.50;;;29.80;33.40;;;;;;5032891;28;20196;-74
2022/08/12 09:09:07;;;;;;;2.80;2.50;;;29.90;33.50;;;;;;5032849;28;20708;-75
2022/08/12 09:14:20;;;;;;;2.80;2.60;;;29.90;33.40;;;;;;5032811;28;20188;-75
2022/08/12 09:16:49;;;;;;;2.92;2.50;;;29.90;33.40;;;;;;5033899;28;20192;-74
2022/08/12 09:19:17;;;;;;;2.83;2.53;;;29.90;33.30;;;;;;5032726;28;20219;-76
2022/08/12 09:21:46;;;;;;;2.45;2.25;;;29.90;33.40;;;;;;5016685;28;20618;-74
2022/08/12 09:24:14;;;;;;;2.60;2.40;;;29.90;33.40;;;;;;5033803;28;20299;-75
2022/08/12 09:26:43;;;;;;;2.80;2.45;;;29.90;33.40;;;;;;5032603;28;20203;-74
2022/08/12 09:29:11;;;;;;;2.60;2.40;;;29.90;33.30;;;;;;5032943;28;20302;-74
2022/08/12 09:31:38;;;;;;;2.80;2.53;;;29.90;33.40;;;;;;5032781;28;20689;-76
2022/08/12 09:34:07;;;;;;;2.78;2.53;;;29.90;33.40;;;;;;5033689;28;20183;-74
2022/08/12 09:36:37;;;;;;;2.40;2.20;;;29.90;33.30;;;;;;5032764;28;20258;-75
2022/08/12 09:39:05;;;;;;;2.33;2.13;;;29.90;33.30;;;;;;5033325;28;20242;-76
2022/08/12 09:41:38;;;;;;;2.58;2.38;;;29.80;33.50;;;;;;5032934;28;20286;-74
2022/08/12 09:46:51;;;;;;;2.50;2.30;;;29.60;34.00;;;;;;5032653;28;20195;-75
2022/08/12 09:49:18;;;;;;;3.53;2.53;;;29.60;34.00;;;;;;5032283;28;20593;-74
2022/08/12 09:51:46;;;;;;;2.50;2.30;;;29.60;33.80;;;;;;5032763;28;20199;-74
2022/08/12 09:54:15;;;;;;;2.45;2.25;;;29.60;33.90;;;;;;5033555;28;20298;-76
2022/08/12 09:56:43;;;;;;;2.17;2.08;;;29.70;33.90;;;;;;5036448;28;20202;-74
2022/08/12 09:59:11;;;;;;;2.50;2.30;;;29.70;33.90;;;;;;5036322;28;20223;-76
2022/08/12 10:01:39;;;;;;;2.45;2.25;;;29.70;33.90;;;;;;5037438;28;20191;-74
2022/08/12 10:04:09;;;;;;;2.50;2.30;;;29.70;33.90;;;;;;5036425;28;20219;-76
2022/08/12 10:06:36;;;;;;;2.78;2.58;;;29.70;34.00;;;;;;5036172;28;20274;-74
2022/08/12 10:09:05;;;;;;;2.60;2.30;;;29.70;34.00;;;;;;5036183;28;20211;-76
2022/08/12 10:14:18;;;;;;;2.70;2.50;;;29.60;34.00;;;;;;5036180;28;20680;-75
2022/08/12 10:16:46;;;;;;;2.40;2.20;;;29.60;34.00;;;;;;5036456;28;20199;-75
2022/08/12 10:19:15;;;;;;;2.85;2.50;;;29.60;34.00;;;;;;5036059;28;20223;-75
2022/08/12 10:21:43;;;;;;;2.50;2.30;;;29.50;34.10;;;;;;5036105;28;20200;-75
2022/08/12 10:24:14;;;;;;;2.50;2.30;;;29.40;34.40;;;;;;5035884;28;20623;-74
2022/08/12 10:29:39;;;;;;;2.10;2.00;;;29.30;34.60;;;;;;4993802;28;20313;-74
2022/08/12 10:32:07;;;;;;;2.72;2.38;;;29.30;34.70;;;;;;5035940;28;20206;-75
2022/08/12 10:34:34;;;;;;;2.45;2.25;;;29.30;34.70;;;;;;5035887;28;20716;-75
2022/08/12 10:37:02;;;;;;;2.40;2.20;;;29.30;34.70;;;;;;5035859;28;20294;-76
2022/08/12 10:39:31;;;;;;;2.50;2.30;;;29.30;34.80;;;;;;5035774;28;20231;-74
2022/08/12 10:44:45;;;;;;;2.47;2.28;;;29.20;34.90;;;;;;5036133;28;20250;-75
2022/08/12 10:47:12;;;;;;;2.88;2.17;;;29.10;34.90;;;;;;5035683;28;20621;-74
2022/08/12 10:49:39;;;;;;;2.10;2.00;;;29.10;35.00;;;;;;5035825;28;20207;-75
2022/08/12 10:52:06;;;;;;;2.10;1.90;;;29.10;35.20;;;;;;5035516;28;20188;-75
2022/08/12 10:54:33;;;;;;;2.35;2.13;;;29.00;35.20;;;;;;5035349;28;20188;-74
2022/08/12 10:57:00;;;;;;;2.47;2.20;;;29.00;35.30;;;;;;5035506;28;20234;-75
2022/08/12 10:59:28;;;;;;;2.33;2.13;;;28.90;35.50;;;;;;5035497;28;20221;-75
2022/08/12 11:01:56;;;;;;;2.50;2.30;;;28.90;35.60;;;;;;5036422;28;20226;-75
2022/08/12 11:04:23;;;;;;;2.40;2.20;;;28.90;35.70;;;;;;5035401;28;20239;-75
2022/08/12 11:06:52;;;;;;;1.98;1.88;;;28.80;35.80;;;;;;5035026;28;20682;-74
2022/08/12 11:09:20;;;;;;;2.33;2.13;;;28.70;35.80;;;;;;5034960;28;20278;-76
2022/08/12 11:11:47;;;;;;;2.40;2.22;;;28.70;35.90;;;;;;5034982;28;20196;-75
2022/08/12 11:14:17;;;;;;;2.08;1.98;;;28.60;35.90;;;;;;5035932;28;20254;-75
2022/08/12 11:16:44;;;;;;;2.00;1.90;;;28.60;36.60;;;;;;5034968;28;20204;-74
2022/08/12 11:19:12;;;;;;;2.10;1.90;;;28.60;36.10;;;;;;5034738;28;20654;-75
2022/08/12 11:21:40;;;;;;;2.40;2.20;;;28.60;36.20;;;;;;5034871;28;20187;-74
2022/08/12 11:24:06;;;;;;;2.13;2.00;;;28.50;36.20;;;;;;5034903;28;20199;-75
2022/08/12 11:26:34;;;;;;;2.15;2.00;;;28.50;36.20;;;;;;5034740;28;20602;-75
2022/08/12 11:29:01;;;;;;;2.30;2.17;;;28.50;36.40;;;;;;5034519;28;20237;-75
2022/08/12 11:31:28;;;;;;;1.92;1.83;;;28.50;36.40;;;;;;5034725;28;20595;-75
2022/08/12 11:33:55;;;;;;;2.20;2.05;;;28.40;36.50;;;;;;5034928;28;20642;-74
2022/08/12 11:36:23;;;;;;;2.30;2.10;;;28.50;36.60;;;;;;5035187;28;20200;-74
2022/08/12 11:38:50;;;;;;;2.10;1.85;;;28.40;36.50;;;;;;5035718;28;20211;-75
2022/08/12 11:41:17;;;;;;;2.40;2.20;;;28.40;36.60;;;;;;5034434;28;20804;-75
2022/08/12 11:43:45;;;;;;;2.00;1.90;;;28.40;36.60;;;;;;5035619;28;20261;-74
2022/08/12 11:46:13;;;;;;;1.90;1.80;;;28.40;36.70;;;;;;5034390;28;20207;-75
2022/08/12 11:48:40;;;;;;;2.20;2.00;;;28.40;36.70;;;;;;5034171;28;20224;-74
2022/08/12 11:51:07;;;;;;;2.67;1.90;;;28.40;36.70;;;;;;5035576;28;20195;-74
2022/08/12 11:53:36;;;;;;;2.10;2.00;;;28.40;36.70;;;;;;5034315;28;20203;-76
2022/08/12 11:56:03;;;;;;;2.20;2.00;;;28.40;36.70;;;;;;5034207;28;20539;-75
2022/08/12 11:58:30;;;;;;;2.47;2.28;;;28.40;36.80;;;;;;5034138;28;20221;-74
2022/08/12 12:00:57;;;;;;;2.30;2.10;;;28.40;36.80;;;;;;5034233;28;20199;-74
2022/08/12 12:03:24;;;;;;;2.13;1.92;;;28.40;36.90;;;;;;5034337;28;20209;-74
2022/08/12 12:05:51;;;;;;;2.33;2.13;;;28.40;36.90;;;;;;5034241;28;20211;-76
2022/08/12 12:08:22;;;;;;;2.00;1.80;;;28.30;36.80;;;;;;5033936;28;20230;-75
2022/08/12 12:10:51;;;;;;;1.80;1.70;;;28.40;36.90;;;;;;5034386;28;20252;-76
2022/08/12 12:13:18;;;;;;;2.10;1.90;;;28.40;36.90;;;;;;5034047;28;20298;-75
2022/08/12 12:15:44;;;;;;;1.92;1.83;;;28.30;36.90;;;;;;5033827;28;20245;-74
2022/08/12 12:18:21;;;;;;;2.00;1.90;;;28.30;37.00;;;;;;5033292;28;20220;-76
2022/08/12 12:20:48;;;;;;;2.03;1.83;;;28.30;37.00;;;;;;5033662;28;20626;-76
2022/08/12 12:23:15;;;;;;;2.30;2.00;;;28.30;37.10;;;;;;5034017;28;20206;-74
2022/08/12 12:25:43;;;;;;;2.10;1.90;;;28.20;37.10;;;;;;5033531;28;20314;-74
2022/08/12 12:28:11;;;;;;;1.90;1.80;;;28.20;37.10;;;;;;5034674;28;20305;-74
2022/08/12 12:30:39;;;;;;;1.90;1.80;;;28.20;37.10;;;;;;5033846;28;20207;-75
2022/08/12 12:33:06;;;;;;;2.00;1.90;;;28.20;37.10;;;;;;5033924;28;20191;-76
2022/08/12 12:35:33;;;;;;;2.20;2.00;;;28.20;37.10;;;;;;5033485;28;20191;-75
2022/08/12 12:38:02;;;;;;;2.00;1.90;;;28.20;37.10;;;;;;5034884;28;20211;-75
2022/08/12 12:40:30;;;;;;;1.98;1.88;;;28.20;37.10;;;;;;5034516;28;20195;-74
2022/08/12 12:42:57;;;;;;;1.92;1.83;;;28.30;37.10;;;;;;5033772;28;20199;-73
2022/08/12 12:45:25;;;;;;;2.05;1.92;;;28.30;37.10;;;;;;5034060;28;20223;-76
2022/08/12 12:47:57;;;;;;;1.85;1.75;;;28.30;37.10;;;;;;5033422;28;20760;-74
2022/08/12 12:50:25;;;;;;;2.38;2.17;;;28.30;37.20;;;;;;5033508;28;20617;-75
2022/08/12 12:52:51;;;;;;;2.47;1.90;;;28.20;37.00;;;;;;5033461;28;20199;-74
2022/08/12 12:55:19;;;;;;;1.88;1.77;;;28.20;37.10;;;;;;5033202;28;20191;-76
2022/08/12 12:57:46;;;;;;;2.08;1.75;;;28.20;37.10;;;;;;5034198;28;20211;-74
2022/08/12 13:00:17;;;;;;;1.70;1.60;;;28.20;37.20;;;;;;5033034;28;20205;-76
2022/08/12 13:02:51;;;;;;;1.60;1.50;;;28.20;37.20;;;;;;5034931;28;20229;-75
2022/08/12 13:05:22;;;;;;;1.90;1.80;;;28.20;37.20;;;;;;5032968;28;20218;-76
2022/08/12 13:07:50;;;;;;;1.70;1.60;;;28.20;37.20;;;;;;5034455;28;20218;-75
2022/08/12 13:10:17;;;;;;;1.80;1.70;;;28.20;37.30;;;;;;5032974;28;20550;-74
2022/08/12 13:12:44;;;;;;;2.08;1.90;;;28.20;37.40;;;;;;5034142;28;20190;-76
2022/08/12 13:15:14;;;;;;;1.65;1.55;;;28.10;37.40;;;;;;5034009;28;20242;-75
2022/08/12 13:17:42;;;;;;;2.03;1.92;;;28.20;37.50;;;;;;5032698;28;20310;-75
2022/08/12 13:20:12;;;;;;;1.70;1.60;;;28.10;37.50;;;;;;5032847;28;20223;-74
2022/08/12 13:22:39;;;;;;;1.70;1.60;;;28.10;37.50;;;;;;5032833;28;20555;-75
2022/08/12 13:25:07;;;;;;;1.70;1.60;;;28.10;37.40;;;;;;5032781;28;20211;-76
2022/08/12 13:27:35;;;;;;;1.88;1.77;;;28.10;37.50;;;;;;5032555;28;20238;-74
2022/08/12 13:30:03;;;;;;;1.88;1.77;;;28.10;37.60;;;;;;5031744;28;20218;-76
2022/08/12 13:32:31;;;;;;;1.67;1.58;;;28.10;37.60;;;;;;5032921;28;20201;-74
2022/08/12 13:34:58;;;;;;;1.95;1.85;;;28.10;37.60;;;;;;5032749;28;20187;-74
2022/08/12 13:37:26;;;;;;;1.70;1.60;;;28.10;37.70;;;;;;5032420;28;20261;-76
2022/08/12 13:39:53;;;;;;;1.83;1.73;;;28.10;37.80;;;;;;5032634;28;20227;-74
2022/08/12 13:42:21;;;;;;;1.95;1.73;;;28.00;37.70;;;;;;5032634;28;20673;-76
2022/08/12 13:44:49;;;;;;;1.92;1.80;;;28.00;37.70;;;;;;5032858;28;20290;-74
2022/08/12 13:47:20;;;;;;;1.83;1.73;;;28.00;37.80;;;;;;5032711;28;20219;-75
2022/08/12 13:49:48;;;;;;;1.90;1.80;;;28.00;37.80;;;;;;5032965;28;20195;-76
2022/08/12 13:52:17;;;;;;;2.08;1.80;;;28.00;37.90;;;;;;5033973;28;20196;-74
2022/08/12 13:54:47;;;;;;;1.60;1.50;;;28.00;37.90;;;;;;5032983;28;20565;-74
2022/08/12 13:57:42;;;;;;;1.75;1.65;;;27.90;38.00;;;;;;5034217;28;20584;-76
2022/08/12 14:00:11;;;;;;;1.70;1.60;;;27.90;38.10;;;;;;5033206;28;20209;-74
2022/08/12 14:02:38;;;;;;;1.70;1.60;;;27.90;38.10;;;;;;5033684;28;20567;-74
2022/08/12 14:05:08;;;;;;;1.60;1.50;;;27.90;38.20;;;;;;5032541;28;20230;-74
2022/08/12 14:07:54;;;;;;;1.80;1.70;;;27.80;38.20;;;;;;5032401;28;20223;-75
2022/08/12 14:10:38;;;;;;;1.80;1.70;;;27.80;38.30;;;;;;5032153;28;20294;-74
2022/08/12 14:13:09;;;;;;;1.75;1.65;;;27.80;38.30;;;;;;5032418;28;20188;-74
2022/08/12 14:15:37;;;;;;;1.80;1.70;;;27.80;38.30;;;;;;5032333;28;20191;-76
2022/08/12 14:18:12;;;;;;;2.22;1.80;;;27.80;38.90;;;;;;5032300;28;20211;-74
2022/08/12 14:20:39;;;;;;;1.70;1.60;;;27.80;38.30;;;;;;5032313;28;20221;-74
2022/08/12 14:23:06;;;;;;;1.80;1.70;;;27.80;38.30;;;;;;5032356;28;20192;-74
2022/08/12 14:25:34;;;;;;;1.75;1.65;;;27.80;38.30;;;;;;5032041;28;20607;-75
2022/08/12 14:28:10;;;;;;;2.00;1.80;;;27.80;38.40;;;;;;5015921;28;20219;-76
2022/08/12 14:30:42;;;;;;;1.90;1.80;;;27.80;38.50;;;;;;5032225;28;20234;-74
2022/08/12 14:33:09;;;;;;;1.60;1.50;;;27.70;38.60;;;;;;5032525;28;20658;-76
2022/08/12 14:35:36;;;;;;;1.67;1.58;;;27.70;38.60;;;;;;5032329;28;20227;-74
2022/08/12 14:38:13;;;;;;;1.90;1.80;;;27.70;38.70;;;;;;5032381;28;20226;-74
2022/08/12 14:40:41;;;;;;;1.80;1.70;;;27.70;38.70;;;;;;5032669;28;20195;-75